sensor_id;sensor_type;location;lat;lon;timestamp;temperature;humidity
6666;DHT22;3369;49.906;8.598;2023-04-01T00:02:07;10.10;99.90
6666;DHT22;3369;49.906;8.598;2023-04-01T00:04:33;10.00;99.90
6666;DHT22;3369;49.906;8.598;2023-04-01T00:06:59;10.10;99.90
6666;DHT22;3369;49.906;8.598;2023-04-01T00:09:25;10.10;99.90
6666;DHT22;3369;49.906;8.598;2023-04-01T00:11:51;10.10;99.90
6666;DHT22;3369;49.906;8.598;2023-04-01T00:14:17;10.00;99.90
6666;DHT22;3369;49.906;8.598;2023-04-01T00:16:43;10.00;99.90
6666;DHT22;3369;49.906;8.598;2023-04-01T00:19:08;10.00;99.90
6666;DHT22;3369;49.906;8.598;2023-04-01T00:21:34;10.00;99.90
6666;DHT22;3369;49.906;8.598;2023-04-01T00:24:01;10.00;99.90
6666;DHT22;3369;49.906;8.598;2023-04-01T00:26:26;10.00;99.90
6666;DHT22;3369;49.906;8.598;2023-04-01T00:28:52;10.00;99.90
6666;DHT22;3369;49.906;8.598;2023-04-01T00:31:18;10.00;99.90
6666;DHT22;3369;49.906;8.598;2023-04-01T00:33:44;10.00;99.90
6666;DHT22;3369;49.906;8.598;2023-04-01T00:36:14;10.00;99.90
6666;DHT22;3369;49.906;8.598;2023-04-01T00:38:41;10.00;99.90
6666;DHT22;3369;49.906;8.598;2023-04-01T00:41:08;10.00;99.90
6666;DHT22;3369;49.906;8.598;2023-04-01T00:43:34;10.00;99.90
6666;DHT22;3369;49.906;8.598;2023-04-01T00:46:01;10.00;99.90
6666;DHT22;3369;49.906;8.598;2023-04-01T00:48:33;10.00;99.90
6666;DHT22;3369;49.906;8.598;2023-04-01T00:51:09;10.00;99.90
6666;DHT22;3369;49.906;8.598;2023-04-01T00:53:39;10.00;99.90
6666;DHT22;3369;49.906;8.598;2023-04-01T00:56:11;10.00;99.90
6666;DHT22;3369;49.906;8.598;2023-04-01T00:58:41;10.00;99.90
6666;DHT22;3369;49.906;8.598;2023-04-01T01:01:08;10.00;99.90
6666;DHT22;3369;49.906;8.598;2023-04-01T01:03:35;10.00;99.90
6666;DHT22;3369;49.906;8.598;2023-04-01T01:30:22;9.90;99.90
6666;DHT22;3369;49.906;8.598;2023-04-01T01:32:59;9.90;99.90
6666;DHT22;3369;49.906;8.598;2023-04-01T01:35:34;9.90;99.90
6666;DHT22;3369;49.906;8.598;2023-04-01T01:38:04;9.90;99.90
6666;DHT22;3369;49.906;8.598;2023-04-01T01:40:32;9.90;99.90
6666;DHT22;3369;49.906;8.598;2023-04-01T01:43:04;9.90;99.90
6666;DHT22;3369;49.906;8.598;2023-04-01T01:45:32;9.90;99.90
6666;DHT22;3369;49.906;8.598;2023-04-01T01:48:02;9.90;99.90
6666;DHT22;3369;49.906;8.598;2023-04-01T01:50:28;9.90;99.90
6666;DHT22;3369;49.906;8.598;2023-04-01T01:53:09;9.90;99.90
6666;DHT22;3369;49.906;8.598;2023-04-01T01:55:37;9.90;99.90
6666;DHT22;3369;49.906;8.598;2023-04-01T01:58:12;9.90;99.90
6666;DHT22;3369;49.906;8.598;2023-04-01T02:00:39;9.90;99.90
6666;DHT22;3369;49.906;8.598;2023-04-01T02:03:07;9.90;99.90
6666;DHT22;3369;49.906;8.598;2023-04-01T02:05:33;9.90;99.90
6666;DHT22;3369;49.906;8.598;2023-04-01T02:08:06;9.90;99.90
6666;DHT22;3369;49.906;8.598;2023-04-01T02:10:36;9.90;99.90
6666;DHT22;3369;49.906;8.598;2023-04-01T02:13:08;9.90;99.90
6666;DHT22;3369;49.906;8.598;2023-04-01T02:15:41;9.90;99.90
6666;DHT22;3369;49.906;8.598;2023-04-01T02:18:08;9.90;99.90
6666;DHT22;3369;49.906;8.598;2023-04-01T02:20:35;9.90;99.90
6666;DHT22;3369;49.906;8.598;2023-04-01T02:23:02;9.80;99.90
6666;DHT22;3369;49.906;8.598;2023-04-01T02:25:30;9.80;99.90
6666;DHT22;3369;49.906;8.598;2023-04-01T02:28:00;9.80;99.90
6666;DHT22;3369;49.906;8.598;2023-04-01T02:30:27;9.80;99.90
6666;DHT22;3369;49.906;8.598;2023-04-01T02:32:56;9.80;99.90
6666;DHT22;3369;49.906;8.598;2023-04-01T02:35:24;9.80;99.90
6666;DHT22;3369;49.906;8.598;2023-04-01T02:37:52;9.80;99.90
6666;DHT22;3369;49.906;8.598;2023-04-01T02:40:18;9.80;99.90
6666;DHT22;3369;49.906;8.598;2023-04-01T02:42:43;9.70;99.90
6666;DHT22;3369;49.906;8.598;2023-04-01T02:45:10;9.70;99.90
6666;DHT22;3369;49.906;8.598;2023-04-01T02:47:36;9.70;99.90
6666;DHT22;3369;49.906;8.598;2023-04-01T02:50:02;9.70;99.90
6666;DHT22;3369;49.906;8.598;2023-04-01T02:52:29;9.60;99.90
6666;DHT22;3369;49.906;8.598;2023-04-01T02:54:55;9.60;99.90
6666;DHT22;3369;49.906;8.598;2023-04-01T02:57:21;9.60;99.90
6666;DHT22;3369;49.906;8.598;2023-04-01T02:59:47;9.60;99.90
6666;DHT22;3369;49.906;8.598;2023-04-01T03:02:13;9.60;99.90
6666;DHT22;3369;49.906;8.598;2023-04-01T03:04:40;9.60;99.90
6666;DHT22;3369;49.906;8.598;2023-04-01T03:07:05;9.60;99.90
6666;DHT22;3369;49.906;8.598;2023-04-01T03:09:31;9.50;99.90
6666;DHT22;3369;49.906;8.598;2023-04-01T03:11:57;9.50;99.90
6666;DHT22;3369;49.906;8.598;2023-04-01T03:14:22;9.50;99.90
6666;DHT22;3369;49.906;8.598;2023-04-01T03:16:48;9.50;99.90
6666;DHT22;3369;49.906;8.598;2023-04-01T03:19:14;9.50;99.90
6666;DHT22;3369;49.906;8.598;2023-04-01T03:21:40;9.50;99.90
6666;DHT22;3369;49.906;8.598;2023-04-01T03:24:05;9.50;99.90
6666;DHT22;3369;49.906;8.598;2023-04-01T03:26:31;9.50;99.90
6666;DHT22;3369;49.906;8.598;2023-04-01T03:28:57;9.50;99.90
6666;DHT22;3369;49.906;8.598;2023-04-01T03:31:23;9.50;99.90
6666;DHT22;3369;49.906;8.598;2023-04-01T03:33:49;9.50;99.90
6666;DHT22;3369;49.906;8.598;2023-04-01T03:36:15;9.60;99.90
6666;DHT22;3369;49.906;8.598;2023-04-01T03:38:41;9.50;99.90
6666;DHT22;3369;49.906;8.598;2023-04-01T03:41:07;9.50;99.90
6666;DHT22;3369;49.906;8.598;2023-04-01T03:43:33;9.50;99.90
6666;DHT22;3369;49.906;8.598;2023-04-01T03:45:59;9.50;99.90
6666;DHT22;3369;49.906;8.598;2023-04-01T03:48:25;9.50;99.90
6666;DHT22;3369;49.906;8.598;2023-04-01T03:50:51;9.50;99.90
6666;DHT22;3369;49.906;8.598;2023-04-01T03:53:17;9.60;99.90
6666;DHT22;3369;49.906;8.598;2023-04-01T03:55:42;9.60;99.90
6666;DHT22;3369;49.906;8.598;2023-04-01T03:58:08;9.60;99.90
6666;DHT22;3369;49.906;8.598;2023-04-01T04:00:34;9.60;99.90
6666;DHT22;3369;49.906;8.598;2023-04-01T04:03:00;9.60;99.90
6666;DHT22;3369;49.906;8.598;2023-04-01T04:05:26;9.60;99.90
6666;DHT22;3369;49.906;8.598;2023-04-01T04:07:53;9.60;99.90
6666;DHT22;3369;49.906;8.598;2023-04-01T04:10:19;9.60;99.90
6666;DHT22;3369;49.906;8.598;2023-04-01T04:12:45;9.60;99.90
6666;DHT22;3369;49.906;8.598;2023-04-01T04:15:12;9.60;99.90
6666;DHT22;3369;49.906;8.598;2023-04-01T04:17:37;9.60;99.90
6666;DHT22;3369;49.906;8.598;2023-04-01T04:20:03;9.60;99.90
6666;DHT22;3369;49.906;8.598;2023-04-01T04:22:29;9.60;99.90
6666;DHT22;3369;49.906;8.598;2023-04-01T04:24:55;9.60;99.90
6666;DHT22;3369;49.906;8.598;2023-04-01T04:27:20;9.60;99.90
6666;DHT22;3369;49.906;8.598;2023-04-01T04:29:46;9.60;99.90
6666;DHT22;3369;49.906;8.598;2023-04-01T04:32:12;9.60;99.90
6666;DHT22;3369;49.906;8.598;2023-04-01T04:34:37;9.60;99.90
6666;DHT22;3369;49.906;8.598;2023-04-01T04:37:03;9.60;99.90
6666;DHT22;3369;49.906;8.598;2023-04-01T04:39:29;9.60;99.90
6666;DHT22;3369;49.906;8.598;2023-04-01T04:41:54;9.60;99.90
6666;DHT22;3369;49.906;8.598;2023-04-01T04:44:20;9.60;99.90
6666;DHT22;3369;49.906;8.598;2023-04-01T04:46:46;9.60;99.90
6666;DHT22;3369;49.906;8.598;2023-04-01T04:49:11;9.60;99.90
6666;DHT22;3369;49.906;8.598;2023-04-01T04:51:37;9.60;99.90
6666;DHT22;3369;49.906;8.598;2023-04-01T04:54:04;9.60;99.90
6666;DHT22;3369;49.906;8.598;2023-04-01T04:56:30;9.70;99.90
6666;DHT22;3369;49.906;8.598;2023-04-01T04:58:56;9.70;99.90
6666;DHT22;3369;49.906;8.598;2023-04-01T05:01:22;9.70;99.90
6666;DHT22;3369;49.906;8.598;2023-04-01T05:03:47;9.70;99.90
6666;DHT22;3369;49.906;8.598;2023-04-01T05:06:14;9.70;99.90
6666;DHT22;3369;49.906;8.598;2023-04-01T05:08:41;9.70;99.90
6666;DHT22;3369;49.906;8.598;2023-04-01T05:11:11;9.70;99.90
6666;DHT22;3369;49.906;8.598;2023-04-01T05:13:37;9.70;99.90
6666;DHT22;3369;49.906;8.598;2023-04-01T05:16:03;9.70;99.90
6666;DHT22;3369;49.906;8.598;2023-04-01T05:18:29;9.70;99.90
6666;DHT22;3369;49.906;8.598;2023-04-01T05:20:55;9.70;99.90
6666;DHT22;3369;49.906;8.598;2023-04-01T05:23:22;9.70;99.90
6666;DHT22;3369;49.906;8.598;2023-04-01T05:25:49;9.70;99.90
6666;DHT22;3369;49.906;8.598;2023-04-01T05:28:15;9.70;99.90
6666;DHT22;3369;49.906;8.598;2023-04-01T05:30:41;9.70;99.90
6666;DHT22;3369;49.906;8.598;2023-04-01T05:33:07;9.70;99.90
6666;DHT22;3369;49.906;8.598;2023-04-01T05:35:33;9.70;99.90
6666;DHT22;3369;49.906;8.598;2023-04-01T05:37:59;9.70;99.90
6666;DHT22;3369;49.906;8.598;2023-04-01T05:40:24;9.60;99.90
6666;DHT22;3369;49.906;8.598;2023-04-01T05:42:50;9.60;99.90
6666;DHT22;3369;49.906;8.598;2023-04-01T05:45:16;9.60;99.90
6666;DHT22;3369;49.906;8.598;2023-04-01T05:47:41;9.60;99.90
6666;DHT22;3369;49.906;8.598;2023-04-01T05:50:09;9.60;99.90
6666;DHT22;3369;49.906;8.598;2023-04-01T05:52:36;9.60;99.90
6666;DHT22;3369;49.906;8.598;2023-04-01T05:55:02;9.60;99.90
6666;DHT22;3369;49.906;8.598;2023-04-01T05:57:28;9.60;99.90
6666;DHT22;3369;49.906;8.598;2023-04-01T05:59:54;9.60;99.90
6666;DHT22;3369;49.906;8.598;2023-04-01T06:02:19;9.60;99.90
6666;DHT22;3369;49.906;8.598;2023-04-01T06:04:45;9.60;99.90
6666;DHT22;3369;49.906;8.598;2023-04-01T06:07:16;9.60;99.90
6666;DHT22;3369;49.906;8.598;2023-04-01T06:09:43;9.60;99.90
6666;DHT22;3369;49.906;8.598;2023-04-01T06:18:17;9.60;99.90
6666;DHT22;3369;49.906;8.598;2023-04-01T06:21:21;9.60;99.90
6666;DHT22;3369;49.906;8.598;2023-04-01T06:26:53;9.60;99.90
6666;DHT22;3369;49.906;8.598;2023-04-01T06:30:18;9.60;99.90
6666;DHT22;3369;49.906;8.598;2023-04-01T06:46:47;9.70;99.90
6666;DHT22;3369;49.906;8.598;2023-04-01T07:13:20;9.60;99.90
6666;DHT22;3369;49.906;8.598;2023-04-01T07:18:44;9.60;99.90
6666;DHT22;3369;49.906;8.598;2023-04-01T07:21:24;9.70;99.90
6666;DHT22;3369;49.906;8.598;2023-04-01T07:23:51;9.70;99.90
6666;DHT22;3369;49.906;8.598;2023-04-01T07:26:23;9.70;99.90
6666;DHT22;3369;49.906;8.598;2023-04-01T07:28:52;9.70;99.90
6666;DHT22;3369;49.906;8.598;2023-04-01T07:37:11;9.80;99.90
6666;DHT22;3369;49.906;8.598;2023-04-01T07:45:28;9.90;99.90
6666;DHT22;3369;49.906;8.598;2023-04-01T07:50:40;10.00;99.90
6666;DHT22;3369;49.906;8.598;2023-04-01T08:11:41;10.20;99.90
6666;DHT22;3369;49.906;8.598;2023-04-01T08:17:02;10.20;99.90
6666;DHT22;3369;49.906;8.598;2023-04-01T08:19:53;10.20;99.90
6666;DHT22;3369;49.906;8.598;2023-04-01T08:22:36;10.30;99.90
6666;DHT22;3369;49.906;8.598;2023-04-01T08:25:05;10.30;99.90
6666;DHT22;3369;49.906;8.598;2023-04-01T08:27:51;10.30;99.90
6666;DHT22;3369;49.906;8.598;2023-04-01T08:30:32;10.30;99.90
6666;DHT22;3369;49.906;8.598;2023-04-01T08:33:09;10.20;99.90
6666;DHT22;3369;49.906;8.598;2023-04-01T08:38:29;10.20;99.90
6666;DHT22;3369;49.906;8.598;2023-04-01T08:40:59;10.20;99.90
6666;DHT22;3369;49.906;8.598;2023-04-01T09:18:23;10.10;99.90
6666;DHT22;3369;49.906;8.598;2023-04-01T09:20:56;10.10;99.90
6666;DHT22;3369;49.906;8.598;2023-04-01T09:26:07;10.20;99.90
6666;DHT22;3369;49.906;8.598;2023-04-01T09:28:49;10.20;99.90
6666;DHT22;3369;49.906;8.598;2023-04-01T09:40:14;10.30;99.90
6666;DHT22;3369;49.906;8.598;2023-04-01T09:51:51;10.20;99.90
6666;DHT22;3369;49.906;8.598;2023-04-01T10:03:17;10.10;99.90
6666;DHT22;3369;49.906;8.598;2023-04-01T10:08:51;10.10;99.90
6666;DHT22;3369;49.906;8.598;2023-04-01T10:25:18;10.10;99.90
6666;DHT22;3369;49.906;8.598;2023-04-01T10:38:59;10.30;99.90
6666;DHT22;3369;49.906;8.598;2023-04-01T10:47:30;10.40;99.90
6666;DHT22;3369;49.906;8.598;2023-04-01T10:50:25;10.40;99.90
6666;DHT22;3369;49.906;8.598;2023-04-01T10:58:51;10.40;99.90
6666;DHT22;3369;49.906;8.598;2023-04-01T11:01:43;10.40;99.90
6666;DHT22;3369;49.906;8.598;2023-04-01T11:07:30;10.50;99.90
6666;DHT22;3369;49.906;8.598;2023-04-01T11:11:04;10.50;99.90
6666;DHT22;3369;49.906;8.598;2023-04-01T11:30:53;10.80;99.90
6666;DHT22;3369;49.906;8.598;2023-04-01T11:41:38;10.80;99.90
6666;DHT22;3369;49.906;8.598;2023-04-01T11:44:25;10.70;99.90
6666;DHT22;3369;49.906;8.598;2023-04-01T11:53:00;10.80;99.90
6666;DHT22;3369;49.906;8.598;2023-04-01T11:58:58;10.70;99.90
6666;DHT22;3369;49.906;8.598;2023-04-01T12:04:24;10.70;99.90
6666;DHT22;3369;49.906;8.598;2023-04-01T12:08:18;10.70;99.90
6666;DHT22;3369;49.906;8.598;2023-04-01T12:13:42;10.70;99.90
6666;DHT22;3369;49.906;8.598;2023-04-01T12:16:51;10.70;99.90
6666;DHT22;3369;49.906;8.598;2023-04-01T12:24:46;10.60;99.90
6666;DHT22;3369;49.906;8.598;2023-04-01T12:35:24;10.60;99.90
6666;DHT22;3369;49.906;8.598;2023-04-01T12:41:09;10.70;99.90
6666;DHT22;3369;49.906;8.598;2023-04-01T12:49:49;10.90;99.90
6666;DHT22;3369;49.906;8.598;2023-04-01T12:58:10;11.00;99.90
6666;DHT22;3369;49.906;8.598;2023-04-01T13:07:10;11.20;99.90
6666;DHT22;3369;49.906;8.598;2023-04-01T13:30:30;10.80;99.90
6666;DHT22;3369;49.906;8.598;2023-04-01T13:36:05;10.80;99.90
6666;DHT22;3369;49.906;8.598;2023-04-01T13:44:27;10.90;99.90
6666;DHT22;3369;49.906;8.598;2023-04-01T13:47:10;11.00;99.90
6666;DHT22;3369;49.906;8.598;2023-04-01T13:53:25;11.00;99.90
6666;DHT22;3369;49.906;8.598;2023-04-01T14:01:29;11.20;99.90
6666;DHT22;3369;49.906;8.598;2023-04-01T14:04:25;11.30;99.90
6666;DHT22;3369;49.906;8.598;2023-04-01T14:10:02;11.40;99.90
6666;DHT22;3369;49.906;8.598;2023-04-01T14:15:19;11.50;99.90
6666;DHT22;3369;49.906;8.598;2023-04-01T14:20:41;11.40;99.90
6666;DHT22;3369;49.906;8.598;2023-04-01T14:23:32;11.50;99.90
6666;DHT22;3369;49.906;8.598;2023-04-01T14:33:57;11.60;99.90
6666;DHT22;3369;49.906;8.598;2023-04-01T14:39:11;11.70;99.90
6666;DHT22;3369;49.906;8.598;2023-04-01T14:49:46;11.60;99.90
6666;DHT22;3369;49.906;8.598;2023-04-01T14:52:27;11.60;99.90
6666;DHT22;3369;49.906;8.598;2023-04-01T14:54:54;11.50;99.90
6666;DHT22;3369;49.906;8.598;2023-04-01T14:57:31;11.50;99.90
6666;DHT22;3369;49.906;8.598;2023-04-01T15:00:13;11.50;99.90
6666;DHT22;3369;49.906;8.598;2023-04-01T15:02:46;11.40;99.90
6666;DHT22;3369;49.906;8.598;2023-04-01T15:10:53;11.50;99.90
6666;DHT22;3369;49.906;8.598;2023-04-01T15:29:33;11.40;99.90
6666;DHT22;3369;49.906;8.598;2023-04-01T15:40:15;11.40;99.90
6666;DHT22;3369;49.906;8.598;2023-04-01T15:54:31;11.50;99.90
6666;DHT22;3369;49.906;8.598;2023-04-01T16:02:39;11.50;99.90
6666;DHT22;3369;49.906;8.598;2023-04-01T16:05:42;11.50;99.90
6666;DHT22;3369;49.906;8.598;2023-04-01T16:11:31;11.50;99.90
6666;DHT22;3369;49.906;8.598;2023-04-01T16:14:25;11.40;99.90
6666;DHT22;3369;49.906;8.598;2023-04-01T16:17:16;11.40;99.90
6666;DHT22;3369;49.906;8.598;2023-04-01T16:19:55;11.50;99.90
6666;DHT22;3369;49.906;8.598;2023-04-01T16:22:38;11.50;99.90
6666;DHT22;3369;49.906;8.598;2023-04-01T16:31:43;11.40;99.90
6666;DHT22;3369;49.906;8.598;2023-04-01T16:34:25;11.30;99.90
6666;DHT22;3369;49.906;8.598;2023-04-01T16:37:15;11.30;99.90
6666;DHT22;3369;49.906;8.598;2023-04-01T16:40:16;11.20;99.90
6666;DHT22;3369;49.906;8.598;2023-04-01T16:43:06;11.20;99.90
6666;DHT22;3369;49.906;8.598;2023-04-01T16:46:36;11.30;99.90
6666;DHT22;3369;49.906;8.598;2023-04-01T16:51:23;11.30;99.90
6666;DHT22;3369;49.906;8.598;2023-04-01T16:56:43;11.30;99.90
6666;DHT22;3369;49.906;8.598;2023-04-01T17:15:34;11.10;99.90
6666;DHT22;3369;49.906;8.598;2023-04-01T17:18:09;11.10;99.90
6666;DHT22;3369;49.906;8.598;2023-04-01T17:20:43;11.10;99.90
6666;DHT22;3369;49.906;8.598;2023-04-01T17:39:45;11.00;99.90
6666;DHT22;3369;49.906;8.598;2023-04-01T17:42:21;10.90;99.90
6666;DHT22;3369;49.906;8.598;2023-04-01T17:50:20;10.90;99.90
6666;DHT22;3369;49.906;8.598;2023-04-01T17:58:11;10.90;99.90
6666;DHT22;3369;49.906;8.598;2023-04-01T18:01:06;10.90;99.90
6666;DHT22;3369;49.906;8.598;2023-04-01T18:03:54;10.90;99.90
6666;DHT22;3369;49.906;8.598;2023-04-01T18:11:59;10.80;99.90
6666;DHT22;3369;49.906;8.598;2023-04-01T18:15:18;10.80;99.90
6666;DHT22;3369;49.906;8.598;2023-04-01T18:26:29;10.80;99.90
6666;DHT22;3369;49.906;8.598;2023-04-01T18:29:02;10.80;99.90
6666;DHT22;3369;49.906;8.598;2023-04-01T18:31:35;10.70;99.90
6666;DHT22;3369;49.906;8.598;2023-04-01T18:34:20;10.70;99.90
6666;DHT22;3369;49.906;8.598;2023-04-01T18:36:59;10.70;99.90
6666;DHT22;3369;49.906;8.598;2023-04-01T18:39:45;10.60;99.90
6666;DHT22;3369;49.906;8.598;2023-04-01T18:45:21;10.60;99.90
6666;DHT22;3369;49.906;8.598;2023-04-01T18:50:41;10.60;99.90
6666;DHT22;3369;49.906;8.598;2023-04-01T18:53:12;10.50;99.90
6666;DHT22;3369;49.906;8.598;2023-04-01T18:55:54;10.50;99.90
6666;DHT22;3369;49.906;8.598;2023-04-01T19:01:42;10.40;99.90
6666;DHT22;3369;49.906;8.598;2023-04-01T19:04:30;10.50;99.90
6666;DHT22;3369;49.906;8.598;2023-04-01T19:07:01;10.40;99.90
6666;DHT22;3369;49.906;8.598;2023-04-01T19:30:22;10.10;99.90
6666;DHT22;3369;49.906;8.598;2023-04-01T19:33:08;10.10;99.90
6666;DHT22;3369;49.906;8.598;2023-04-01T19:39:03;10.10;99.90
6666;DHT22;3369;49.906;8.598;2023-04-01T19:41:36;10.10;99.90
6666;DHT22;3369;49.906;8.598;2023-04-01T19:46:55;10.00;99.90
6666;DHT22;3369;49.906;8.598;2023-04-01T19:49:34;10.00;99.90
6666;DHT22;3369;49.906;8.598;2023-04-01T19:52:17;10.00;99.90
6666;DHT22;3369;49.906;8.598;2023-04-01T20:01:03;9.90;99.90
6666;DHT22;3369;49.906;8.598;2023-04-01T20:03:41;9.90;99.90
6666;DHT22;3369;49.906;8.598;2023-04-01T20:12:46;9.80;99.90
6666;DHT22;3369;49.906;8.598;2023-04-01T20:14:51;9.80;99.90
6666;DHT22;3369;49.906;8.598;2023-04-01T20:17:24;9.70;99.90
6666;DHT22;3369;49.906;8.598;2023-04-01T20:25:26;9.70;99.90
6666;DHT22;3369;49.906;8.598;2023-04-01T20:44:10;9.70;99.90
6666;DHT22;3369;49.906;8.598;2023-04-01T20:46:50;9.70;99.90
6666;DHT22;3369;49.906;8.598;2023-04-01T20:54:48;9.70;99.90
6666;DHT22;3369;49.906;8.598;2023-04-01T20:57:25;9.70;99.90
6666;DHT22;3369;49.906;8.598;2023-04-01T21:32:23;9.60;99.90
6666;DHT22;3369;49.906;8.598;2023-04-01T21:35:06;9.60;99.90
6666;DHT22;3369;49.906;8.598;2023-04-01T21:38:30;9.60;99.90
6666;DHT22;3369;49.906;8.598;2023-04-01T21:57:08;9.60;99.90
6666;DHT22;3369;49.906;8.598;2023-04-01T22:02:51;9.50;99.90
6666;DHT22;3369;49.906;8.598;2023-04-01T22:13:12;9.50;99.90
6666;DHT22;3369;49.906;8.598;2023-04-01T22:18:34;9.50;99.90
6666;DHT22;3369;49.906;8.598;2023-04-01T22:21:13;9.50;99.90
6666;DHT22;3369;49.906;8.598;2023-04-01T22:29:27;9.50;99.90
6666;DHT22;3369;49.906;8.598;2023-04-01T22:32:15;9.50;99.90
6666;DHT22;3369;49.906;8.598;2023-04-01T22:40:28;9.50;99.90
6666;DHT22;3369;49.906;8.598;2023-04-01T22:43:16;9.50;99.90
6666;DHT22;3369;49.906;8.598;2023-04-01T22:48:46;9.50;99.90
6666;DHT22;3369;49.906;8.598;2023-04-01T22:51:37;9.50;99.90
6666;DHT22;3369;49.906;8.598;2023-04-01T22:54:15;9.50;99.90
6666;DHT22;3369;49.906;8.598;2023-04-01T22:56:53;9.50;99.90
6666;DHT22;3369;49.906;8.598;2023-04-01T22:59:35;9.50;99.90
6666;DHT22;3369;49.906;8.598;2023-04-01T23:04:43;9.50;99.90
6666;DHT22;3369;49.906;8.598;2023-04-01T23:09:56;9.50;99.90
6666;DHT22;3369;49.906;8.598;2023-04-01T23:12:23;9.50;99.90
6666;DHT22;3369;49.906;8.598;2023-04-01T23:20:14;9.50;99.90
6666;DHT22;3369;49.906;8.598;2023-04-01T23:36:22;9.40;99.90
6666;DHT22;3369;49.906;8.598;2023-04-01T23:38:49;9.40;99.90
6666;DHT22;3369;49.906;8.598;2023-04-01T23:41:29;9.40;99.90
6666;DHT22;3369;49.906;8.598;2023-04-01T23:44:05;9.30;99.90
6666;DHT22;3369;49.906;8.598;2023-04-01T23:46:33;9.30;99.90
6666;DHT22;3369;49.906;8.598;2023-04-01T23:49:01;9.20;99.90
6666;DHT22;3369;49.906;8.598;2023-04-01T23:51:35;9.20;99.90
6666;DHT22;3369;49.906;8.598;2023-04-01T23:54:23;9.20;99.90
6666;DHT22;3369;49.906;8.598;2023-04-01T23:56:55;9.20;99.90
6666;DHT22;3369;49.906;8.598;2023-04-01T23:59:32;9.10;99.90
